createdAt,value
2022-11-20T00:01:31.916Z,21.50
2022-11-20T00:03:59.837Z,20.83
2022-11-20T00:06:28.667Z,18.93
2022-11-20T00:08:57.804Z,19.90
2022-11-20T00:11:26.929Z,20.13
2022-11-20T00:13:58.187Z,20.37
2022-11-20T00:16:27.948Z,21.07
2022-11-20T00:18:55.505Z,22.80
2022-11-20T00:21:27.343Z,20.03
2022-11-20T00:23:56.699Z,22.03
2022-11-20T00:26:26.077Z,20.73
2022-11-20T00:28:59.085Z,21.97
2022-11-20T00:31:26.879Z,21.80
2022-11-20T00:33:53.806Z,21.17
2022-11-20T00:36:23.760Z,20.20
2022-11-20T00:38:58.757Z,21.93
2022-11-20T00:41:27.949Z,20.63
2022-11-20T00:43:56.127Z,20.03
2022-11-20T00:46:25.976Z,21.80
2022-11-20T00:48:53.187Z,21.40
2022-11-20T00:51:23.789Z,21.87
2022-11-20T00:53:50.781Z,21.97
2022-11-20T00:56:19.686Z,21.43
2022-11-20T00:58:48.870Z,21.63
2022-11-20T01:01:20.303Z,20.27
2022-11-20T01:03:50.691Z,22.77
2022-11-20T01:06:25.230Z,21.27
2022-11-20T01:08:58.393Z,22.53
2022-11-20T01:11:31.765Z,22.37
2022-11-20T01:14:00.515Z,21.13
2022-11-20T01:16:37.954Z,21.20
2022-11-20T01:19:08.099Z,23.27
2022-11-20T01:21:40.792Z,20.17
2022-11-20T01:24:11.015Z,20.63
2022-11-20T01:26:40.650Z,21.30
2022-11-20T01:29:10.234Z,18.70
2022-11-20T01:31:38.265Z,20.17
2022-11-20T01:34:08.841Z,20.67
2022-11-20T01:36:38.031Z,19.97
2022-11-20T01:39:10.913Z,20.60
2022-11-20T01:41:56.007Z,19.00
2022-11-20T01:44:59.686Z,21.20
2022-11-20T01:47:38.237Z,22.53
2022-11-20T01:50:29.857Z,20.53
2022-11-20T01:53:03.689Z,19.97
2022-11-20T01:55:38.708Z,19.60
2022-11-20T01:58:06.146Z,20.53
2022-11-20T02:00:33.031Z,20.80
2022-11-20T02:03:06.677Z,19.70
2022-11-20T02:05:43.166Z,21.37
2022-11-20T02:08:10.096Z,20.53
2022-11-20T02:10:37.046Z,18.90
2022-11-20T02:13:23.352Z,18.50
2022-11-20T02:15:50.705Z,19.77
2022-11-20T02:18:20.192Z,21.27
2022-11-20T02:20:51.521Z,19.30
2022-11-20T02:23:29.128Z,19.73
2022-11-20T02:25:56.909Z,19.33
2022-11-20T02:28:24.321Z,19.63
2022-11-20T02:30:51.281Z,19.90
2022-11-20T02:33:18.164Z,19.17
2022-11-20T02:35:47.596Z,19.10
2022-11-20T02:38:15.515Z,19.63
2022-11-20T02:40:43.017Z,18.53
2022-11-20T02:43:10.472Z,20.07
2022-11-20T02:45:37.988Z,20.60
2022-11-20T02:48:05.105Z,18.93
2022-11-20T02:50:32.104Z,20.80
2022-11-20T02:52:59.024Z,20.60
2022-11-20T02:55:25.909Z,19.87
2022-11-20T02:57:52.873Z,20.63
2022-11-20T03:00:20.030Z,20.90
2022-11-20T03:02:47.230Z,23.70
2022-11-20T03:05:14.271Z,21.77
2022-11-20T03:07:41.174Z,19.80
2022-11-20T03:10:08.860Z,20.80
2022-11-20T03:12:35.750Z,19.60
2022-11-20T03:15:02.738Z,19.50
2022-11-20T03:17:30.661Z,20.20
2022-11-20T03:19:57.731Z,18.80
2022-11-20T03:22:24.591Z,19.77
2022-11-20T03:24:52.181Z,20.00
2022-11-20T03:27:19.109Z,18.03
2022-11-20T03:29:46.013Z,19.27
2022-11-20T03:32:12.876Z,19.00
2022-11-20T03:34:39.755Z,18.93
2022-11-20T03:37:07.196Z,19.20
2022-11-20T03:39:34.099Z,18.70
2022-11-20T03:42:00.986Z,20.37
2022-11-20T03:44:27.864Z,22.33
2022-11-20T03:46:54.784Z,18.17
2022-11-20T03:49:22.064Z,20.60
2022-11-20T03:51:49.211Z,20.57
2022-11-20T03:54:16.256Z,19.20
2022-11-20T03:56:43.163Z,21.17
2022-11-20T03:59:11.568Z,21.13
2022-11-20T04:01:38.947Z,20.70
2022-11-20T04:04:06.375Z,20.57
2022-11-20T04:06:38.459Z,20.07
2022-11-20T04:09:06.521Z,20.33
2022-11-20T04:11:38.604Z,19.00
2022-11-20T04:14:07.641Z,20.90
2022-11-20T04:16:37.641Z,21.17
2022-11-20T04:19:10.122Z,19.33
2022-11-20T04:21:37.265Z,19.57
2022-11-20T04:24:05.161Z,19.20
2022-11-20T04:26:32.216Z,19.90
2022-11-20T04:28:59.876Z,20.60
2022-11-20T04:31:32.370Z,20.90
2022-11-20T04:34:05.168Z,20.53
2022-11-20T04:36:32.588Z,22.33
2022-11-20T04:39:05.009Z,18.30
2022-11-20T04:41:35.432Z,18.97
2022-11-20T04:44:05.186Z,20.50
2022-11-20T04:46:39.619Z,19.83
2022-11-20T04:49:06.952Z,17.50
2022-11-20T04:51:34.549Z,19.70
2022-11-20T04:54:01.872Z,19.23
2022-11-20T04:56:28.835Z,18.47
2022-11-20T04:58:55.786Z,18.20
2022-11-20T05:01:25.770Z,19.77
2022-11-20T05:03:53.110Z,19.17
2022-11-20T05:06:23.442Z,19.10
2022-11-20T05:08:51.254Z,19.43
2022-11-20T05:11:21.406Z,20.60
2022-11-20T05:13:49.820Z,18.53
2022-11-20T05:16:27.130Z,18.93
2022-11-20T05:18:55.376Z,19.43
2022-11-20T05:21:22.758Z,18.80
2022-11-20T05:23:49.797Z,19.80
2022-11-20T05:26:22.818Z,17.03
2022-11-20T05:28:51.052Z,17.53
2022-11-20T05:31:27.541Z,17.57
2022-11-20T05:33:57.587Z,17.43
2022-11-20T05:36:25.075Z,18.73
2022-11-20T05:38:55.473Z,16.17
2022-11-20T05:41:25.584Z,16.60
2022-11-20T05:43:52.472Z,17.40
2022-11-20T05:46:27.753Z,17.00
2022-11-20T05:48:55.441Z,17.77
2022-11-20T05:51:22.385Z,17.00
2022-11-20T05:53:49.326Z,19.57
2022-11-20T05:56:19.717Z,17.17
2022-11-20T05:58:47.555Z,17.17
2022-11-20T06:01:24.550Z,16.43
2022-11-20T06:03:52.305Z,16.37
2022-11-20T06:06:20.741Z,17.40
2022-11-20T06:08:47.905Z,18.63
2022-11-20T06:11:16.116Z,17.23
2022-11-20T06:13:43.493Z,16.40
2022-11-20T06:16:11.984Z,17.93
2022-11-20T06:18:39.688Z,17.93
2022-11-20T06:21:19.769Z,17.70
2022-11-20T06:23:47.344Z,17.47
2022-11-20T06:26:20.701Z,16.17
2022-11-20T06:28:47.710Z,16.87
2022-11-20T06:31:17.794Z,18.90
2022-11-20T06:33:45.151Z,18.67
2022-11-20T06:36:16.026Z,15.33
2022-11-20T06:38:43.606Z,16.93
2022-11-20T06:41:17.233Z,18.30
2022-11-20T06:43:44.517Z,17.97
2022-11-20T06:46:13.469Z,16.87
2022-11-20T06:48:41.217Z,17.63
2022-11-20T06:51:09.067Z,16.97
2022-11-20T06:53:36.660Z,18.73
2022-11-20T06:56:04.518Z,18.93
2022-11-20T06:58:33.208Z,19.53
2022-11-20T07:01:11.035Z,18.23
2022-11-20T07:03:38.651Z,19.43
2022-11-20T07:06:06.900Z,19.57
2022-11-20T07:08:34.835Z,19.10
2022-11-20T07:11:07.925Z,18.13
2022-11-20T07:13:34.901Z,20.37
2022-11-20T07:16:08.357Z,19.93
2022-11-20T07:18:35.774Z,22.30
2022-11-20T07:21:09.249Z,18.80
2022-11-20T07:23:36.858Z,16.00
2022-11-20T07:26:06.160Z,20.63
2022-11-20T07:28:33.469Z,19.87
2022-11-20T07:31:00.498Z,17.93
2022-11-20T07:33:27.388Z,21.30
2022-11-20T07:35:54.374Z,21.30
2022-11-20T07:38:21.409Z,19.13
2022-11-20T07:40:48.290Z,20.80
2022-11-20T07:43:15.223Z,24.53
2022-11-20T07:45:42.941Z,18.70
2022-11-20T07:48:09.868Z,18.23
2022-11-20T07:50:36.748Z,20.13
2022-11-20T07:53:05.537Z,20.47
2022-11-20T07:55:33.454Z,20.43
2022-11-20T07:58:00.850Z,18.80
2022-11-20T08:00:28.490Z,22.50
2022-11-20T08:02:55.628Z,27.00
2022-11-20T08:05:22.573Z,18.03
2022-11-20T08:07:49.887Z,19.13
2022-11-20T08:10:17.335Z,22.43
2022-11-20T08:13:11.427Z,21.97
2022-11-20T08:15:40.406Z,27.10
2022-11-20T08:21:04.839Z,19.57
2022-11-20T08:23:31.967Z,20.07
2022-11-20T08:25:58.862Z,21.00
2022-11-20T08:28:25.762Z,19.80
2022-11-20T08:30:52.672Z,19.00
2022-11-20T08:33:19.723Z,20.37
2022-11-20T08:35:46.924Z,21.80
2022-11-20T08:38:14.043Z,21.90
2022-11-20T08:40:40.921Z,22.33
2022-11-20T08:43:07.797Z,19.90
2022-11-20T08:45:35.536Z,20.00
2022-11-20T08:48:04.426Z,20.07
2022-11-20T08:50:34.752Z,19.53
2022-11-20T08:53:07.706Z,20.97
2022-11-20T08:55:36.672Z,21.90
2022-11-20T08:58:07.611Z,21.87
2022-11-20T09:00:35.358Z,20.40
2022-11-20T09:03:02.834Z,22.07
2022-11-20T09:05:30.111Z,20.97
2022-11-20T09:07:58.436Z,21.10
2022-11-20T09:10:25.574Z,24.57
2022-11-20T09:12:53.704Z,23.17
2022-11-20T09:15:20.941Z,22.70
2022-11-20T09:18:04.677Z,25.97
2022-11-20T09:20:32.236Z,23.43
2022-11-20T09:22:59.500Z,22.80
2022-11-20T09:25:26.748Z,22.20
2022-11-20T09:28:00.438Z,26.73
2022-11-20T09:30:28.223Z,21.93
2022-11-20T09:32:55.918Z,25.70
2022-11-20T09:35:22.819Z,28.07
2022-11-20T09:37:50.015Z,31.70
2022-11-20T09:40:30.539Z,27.80
2022-11-20T09:43:12.330Z,25.10
2022-11-20T09:46:07.723Z,25.50
2022-11-20T09:48:53.208Z,26.73
2022-11-20T09:51:51.580Z,26.80
2022-11-20T09:54:46.978Z,25.40
2022-11-20T09:57:19.413Z,25.50
2022-11-20T10:00:00.729Z,24.13
2022-11-20T10:02:47.743Z,23.93
2022-11-20T10:05:28.990Z,23.00
2022-11-20T10:08:24.218Z,25.13
2022-11-20T10:11:19.171Z,25.23
2022-11-20T10:14:28.006Z,26.97
2022-11-20T10:17:26.938Z,25.70
2022-11-20T10:20:25.879Z,26.80
2022-11-20T10:23:26.220Z,25.03
2022-11-20T10:26:05.645Z,27.37
2022-11-20T10:28:57.246Z,24.53
2022-11-20T10:31:37.746Z,27.40
2022-11-20T10:34:28.029Z,22.03
2022-11-20T10:37:14.222Z,24.70
2022-11-20T10:40:07.296Z,25.27
2022-11-20T10:42:47.958Z,24.73
2022-11-20T10:45:30.230Z,24.70
2022-11-20T10:48:08.374Z,27.60
2022-11-20T10:50:41.616Z,23.77
2022-11-20T10:53:37.299Z,25.27
2022-11-20T10:56:17.546Z,22.43
2022-11-20T10:59:09.520Z,20.87
2022-11-20T11:01:43.090Z,24.63
2022-11-20T11:04:34.496Z,20.40
2022-11-20T11:07:17.964Z,20.63
2022-11-20T11:09:51.794Z,22.20
2022-11-20T11:12:19.377Z,20.07
2022-11-20T11:14:55.623Z,20.20
2022-11-20T11:17:32.549Z,18.87
2022-11-20T11:20:11.504Z,19.73
2022-11-20T11:22:53.591Z,19.10
2022-11-20T11:25:26.883Z,19.13
2022-11-20T11:27:59.021Z,20.57
2022-11-20T11:30:27.788Z,18.47
2022-11-20T11:33:11.558Z,18.80
2022-11-20T11:36:03.135Z,19.10
2022-11-20T11:38:40.802Z,18.97
2022-11-20T11:41:14.644Z,18.63
2022-11-20T11:44:13.507Z,18.37
2022-11-20T11:46:46.061Z,17.47
2022-11-20T11:49:20.461Z,18.80
2022-11-20T11:52:09.942Z,17.63
2022-11-20T11:54:56.843Z,18.33
2022-11-20T11:57:41.931Z,17.03
2022-11-20T12:00:18.261Z,16.90
2022-11-20T12:02:50.920Z,16.43
2022-11-20T12:05:25.275Z,17.93
2022-11-20T12:08:12.145Z,18.93
2022-11-20T12:11:14.262Z,17.97
2022-11-20T12:13:56.426Z,17.80
2022-11-20T12:16:23.890Z,18.17
2022-11-20T12:18:53.287Z,17.27
2022-11-20T12:21:36.922Z,19.23
2022-11-20T12:24:37.157Z,18.03
2022-11-20T12:27:45.781Z,16.20
2022-11-20T12:30:17.059Z,17.13
2022-11-20T12:33:05.716Z,16.90
2022-11-20T12:36:15.838Z,17.17
2022-11-20T12:39:33.586Z,15.57
2022-11-20T12:42:56.461Z,16.07
2022-11-20T12:46:04.624Z,17.67
2022-11-20T12:49:14.822Z,17.87
2022-11-20T12:51:56.075Z,20.70
2022-11-20T12:55:17.709Z,17.67
2022-11-20T12:57:54.415Z,19.10
2022-11-20T13:00:24.164Z,19.57
2022-11-20T13:03:14.772Z,19.37
2022-11-20T13:06:18.271Z,19.70
2022-11-20T13:08:59.763Z,20.63
2022-11-20T13:11:55.494Z,22.37
2022-11-20T13:14:40.674Z,17.87
2022-11-20T13:17:34.386Z,19.83
2022-11-20T13:20:02.058Z,28.57
2022-11-20T13:22:50.285Z,23.07
2022-11-20T13:25:40.515Z,21.23
2022-11-20T13:28:10.218Z,19.80
2022-11-20T13:30:49.984Z,19.63
2022-11-20T13:33:33.730Z,18.90
2022-11-20T13:36:20.599Z,20.33
2022-11-20T13:38:51.520Z,17.33
2022-11-20T13:41:36.318Z,18.70
2022-11-20T13:44:25.242Z,17.73
2022-11-20T13:46:52.411Z,20.50
2022-11-20T13:49:31.959Z,18.63
2022-11-20T13:52:43.624Z,19.93
2022-11-20T13:55:21.753Z,19.60
2022-11-20T13:58:41.838Z,20.30
2022-11-20T14:01:17.290Z,22.60
2022-11-20T14:04:04.975Z,21.03
2022-11-20T14:06:35.623Z,21.23
2022-11-20T14:09:02.520Z,19.80
2022-11-20T14:11:32.052Z,19.10
2022-11-20T14:14:16.762Z,19.00
2022-11-20T14:16:45.390Z,18.47
2022-11-20T14:19:21.214Z,20.00
2022-11-20T14:21:55.932Z,19.20
2022-11-20T14:24:26.045Z,19.77
2022-11-20T14:26:53.625Z,19.13
2022-11-20T14:29:35.368Z,19.70
2022-11-20T14:32:02.969Z,22.03
2022-11-20T14:34:34.034Z,23.20
2022-11-20T14:37:03.974Z,20.93
2022-11-20T14:39:38.308Z,24.30
2022-11-20T14:42:17.986Z,25.27
2022-11-20T14:44:45.652Z,26.73
2022-11-20T14:47:22.479Z,26.33
2022-11-20T14:49:51.609Z,24.67
2022-11-20T14:52:27.588Z,23.77
2022-11-20T14:55:02.005Z,24.37
2022-11-20T14:57:35.261Z,23.07
2022-11-20T15:00:22.213Z,23.30
2022-11-20T15:02:51.579Z,24.37
2022-11-20T15:05:21.931Z,21.83
2022-11-20T15:08:07.292Z,23.00
2022-11-20T15:10:34.605Z,22.00
2022-11-20T15:13:12.379Z,23.80
2022-11-20T15:15:50.570Z,25.47
2022-11-20T15:18:21.300Z,21.40
2022-11-20T15:20:49.063Z,22.83
2022-11-20T15:23:21.841Z,19.87
2022-11-20T15:25:50.071Z,22.93
2022-11-20T15:28:36.144Z,21.43
2022-11-20T15:31:04.821Z,22.80
2022-11-20T15:33:33.087Z,23.40
2022-11-20T15:36:00.519Z,20.47
2022-11-20T15:38:27.474Z,21.57
2022-11-20T15:40:54.351Z,20.73
2022-11-20T15:43:21.299Z,21.27
2022-11-20T15:45:54.059Z,19.83
2022-11-20T15:48:36.479Z,21.17
2022-11-20T15:51:12.439Z,19.17
2022-11-20T15:53:41.185Z,19.60
2022-11-20T15:56:13.135Z,19.97
2022-11-20T15:58:41.071Z,20.73
2022-11-20T16:01:13.859Z,20.17
2022-11-20T16:03:42.319Z,22.07
2022-11-20T16:06:09.476Z,20.90
2022-11-20T16:08:36.539Z,22.33
2022-11-20T16:11:03.498Z,24.40
2022-11-20T16:13:51.239Z,24.57
2022-11-20T16:16:29.148Z,23.70
2022-11-20T16:18:56.321Z,24.53
2022-11-20T16:21:28.862Z,21.63
2022-11-20T16:23:55.813Z,22.47
2022-11-20T16:26:23.214Z,22.97
2022-11-20T16:28:50.084Z,24.57
2022-11-20T16:31:19.413Z,22.63
2022-11-20T16:33:54.722Z,22.13
2022-11-20T16:36:24.961Z,21.53
2022-11-20T16:39:00.586Z,22.10
2022-11-20T16:41:31.314Z,22.30
2022-11-20T16:44:01.770Z,22.43
2022-11-20T16:46:31.775Z,23.67
2022-11-20T16:48:59.795Z,20.43
2022-11-20T16:51:28.176Z,21.57
2022-11-20T16:53:58.229Z,19.17
2022-11-20T16:56:27.591Z,18.80
2022-11-20T16:58:57.523Z,19.30
2022-11-20T17:01:26.641Z,21.20
2022-11-20T17:04:16.093Z,20.97
2022-11-20T17:06:44.600Z,20.43
2022-11-20T17:09:12.811Z,22.07
2022-11-20T17:11:40.052Z,19.90
2022-11-20T17:14:09.990Z,19.57
2022-11-20T17:16:37.910Z,20.30
2022-11-20T17:19:05.586Z,18.83
2022-11-20T17:21:36.315Z,21.27
2022-11-20T17:24:07.107Z,19.63
2022-11-20T17:26:35.681Z,20.23
2022-11-20T17:29:10.229Z,21.10
2022-11-20T17:31:38.690Z,22.10
2022-11-20T17:34:08.485Z,20.83
2022-11-20T17:36:35.890Z,21.03
2022-11-20T17:39:04.721Z,20.40
2022-11-20T17:41:31.636Z,21.60
2022-11-20T17:44:00.980Z,20.20
2022-11-20T17:46:35.124Z,21.37
2022-11-20T17:49:03.235Z,21.00
2022-11-20T17:51:35.111Z,19.87
2022-11-20T17:54:07.364Z,21.17
2022-11-20T17:56:54.067Z,20.63
2022-11-20T17:59:21.367Z,17.77
2022-11-20T18:01:48.396Z,20.50
2022-11-20T18:04:15.436Z,23.40
2022-11-20T18:06:43.339Z,21.53
2022-11-20T18:09:11.070Z,19.40
2022-11-20T18:11:41.032Z,21.77
2022-11-20T18:14:31.394Z,19.50
2022-11-20T18:17:07.736Z,21.37
2022-11-20T18:19:42.646Z,20.00
2022-11-20T18:22:20.544Z,19.80
2022-11-20T18:24:47.506Z,20.17
2022-11-20T18:27:19.391Z,17.83
2022-11-20T18:29:48.658Z,20.80
2022-11-20T18:32:15.584Z,21.70
2022-11-20T18:34:42.567Z,22.13
2022-11-20T18:37:10.720Z,22.17
2022-11-20T18:39:37.681Z,23.53
2022-11-20T18:42:22.907Z,23.07
2022-11-20T18:44:53.651Z,24.93
2022-11-20T18:47:30.738Z,28.33
2022-11-20T18:50:02.075Z,25.27
2022-11-20T18:52:38.160Z,25.73
2022-11-20T18:55:06.386Z,27.37
2022-11-20T18:57:33.735Z,27.77
2022-11-20T19:00:06.410Z,26.27
2022-11-20T19:02:40.896Z,26.07
2022-11-20T19:05:13.543Z,24.73
2022-11-20T19:07:41.185Z,24.80
2022-11-20T19:10:08.626Z,23.97
2022-11-20T19:12:35.538Z,24.20
2022-11-20T19:15:02.570Z,23.63
2022-11-20T19:17:29.470Z,24.50
2022-11-20T19:19:56.613Z,27.93
2022-11-20T19:22:23.571Z,27.53
2022-11-20T19:24:50.568Z,26.50
2022-11-20T19:27:17.493Z,27.73
2022-11-20T19:29:44.534Z,27.13
2022-11-20T19:32:11.510Z,25.33
2022-11-20T19:34:38.375Z,23.90
2022-11-20T19:37:05.420Z,23.67
2022-11-20T19:39:32.356Z,27.03
2022-11-20T19:41:59.292Z,25.10
2022-11-20T19:44:26.213Z,24.70
2022-11-20T19:46:53.130Z,26.50
2022-11-20T19:49:20.036Z,25.63
2022-11-20T19:51:49.257Z,25.07
2022-11-20T19:54:16.934Z,24.83
2022-11-20T19:56:45.576Z,26.47
2022-11-20T19:59:13.103Z,27.37
2022-11-20T20:01:40.224Z,25.07
2022-11-20T20:04:07.340Z,27.77
2022-11-20T20:06:36.455Z,24.70
2022-11-20T20:09:08.233Z,27.17
2022-11-20T20:11:36.074Z,26.63
2022-11-20T20:14:10.646Z,27.77
2022-11-20T20:16:37.646Z,26.43
2022-11-20T20:19:05.624Z,26.87
2022-11-20T20:21:35.050Z,26.20
2022-11-20T20:24:02.408Z,24.43
2022-11-20T20:26:31.933Z,24.87
2022-11-20T20:29:00.005Z,24.60
2022-11-20T20:31:29.185Z,23.83
2022-11-20T20:33:57.067Z,23.47
2022-11-20T20:36:24.733Z,22.43
2022-11-20T20:38:57.182Z,24.20
2022-11-20T20:41:25.053Z,23.60
2022-11-20T20:44:11.116Z,24.40
2022-11-20T20:46:38.300Z,23.83
2022-11-20T20:49:05.768Z,23.63
2022-11-20T20:51:32.660Z,23.17
2022-11-20T20:53:59.643Z,24.17
2022-11-20T20:56:26.777Z,22.20
2022-11-20T20:58:53.695Z,25.20
2022-11-20T21:01:22.717Z,24.37
2022-11-20T21:03:49.756Z,24.33
2022-11-20T21:06:16.963Z,24.20
2022-11-20T21:08:44.752Z,25.77
2022-11-20T21:11:17.890Z,26.67
2022-11-20T21:13:46.550Z,25.17
2022-11-20T21:16:15.440Z,24.20
2022-11-20T21:18:42.923Z,23.67
2022-11-20T21:21:32.067Z,27.23
2022-11-20T21:23:59.376Z,28.27
2022-11-20T21:26:26.305Z,26.63
2022-11-20T21:28:53.550Z,26.37
2022-11-20T21:31:24.982Z,26.77
2022-11-20T21:33:54.132Z,25.40
2022-11-20T21:36:25.568Z,26.53
2022-11-20T21:38:55.251Z,25.97
2022-11-20T21:41:24.008Z,26.40
2022-11-20T21:44:16.253Z,24.97
2022-11-20T21:46:42.547Z,24.17
2022-11-20T21:49:10.079Z,27.77
2022-11-20T21:51:37.032Z,25.60
2022-11-20T21:54:04.119Z,25.67
2022-11-20T21:56:31.077Z,29.53
2022-11-20T21:58:58.822Z,31.13
2022-11-20T22:01:29.500Z,28.73
2022-11-20T22:04:00.183Z,28.70
2022-11-20T22:06:34.864Z,26.77
2022-11-20T22:09:03.168Z,27.53
2022-11-20T22:11:30.449Z,29.17
2022-11-20T22:14:16.428Z,30.50
2022-11-20T22:16:43.526Z,31.70
2022-11-20T22:19:10.472Z,28.97
2022-11-20T22:21:40.688Z,30.00
2022-11-20T22:24:08.919Z,31.93
2022-11-20T22:26:40.182Z,32.03
2022-11-20T22:29:08.107Z,29.13
2022-11-20T22:31:35.012Z,28.80
2022-11-20T22:34:02.937Z,28.10
2022-11-20T22:36:31.836Z,26.90
2022-11-20T22:38:59.239Z,26.67
2022-11-20T22:41:29.795Z,26.83
2022-11-20T22:44:05.293Z,27.63
2022-11-20T22:46:35.294Z,25.97
2022-11-20T22:49:06.137Z,27.77
2022-11-20T22:51:36.537Z,29.83
2022-11-20T22:54:04.136Z,31.43
2022-11-20T22:56:31.367Z,33.30
2022-11-20T22:58:58.534Z,29.37
2022-11-20T23:01:32.040Z,29.50
2022-11-20T23:04:02.338Z,27.37
2022-11-20T23:06:30.350Z,27.33
2022-11-20T23:08:58.424Z,26.67
2022-11-20T23:11:28.774Z,25.23
2022-11-20T23:14:13.954Z,26.93
2022-11-20T23:16:41.412Z,26.67
2022-11-20T23:19:11.978Z,27.10
2022-11-20T23:21:40.988Z,27.07
2022-11-20T23:24:09.221Z,27.17
2022-11-20T23:26:39.775Z,26.53
2022-11-20T23:29:07.078Z,25.30
2022-11-20T23:31:35.653Z,28.43
2022-11-20T23:34:02.658Z,28.63
2022-11-20T23:36:29.600Z,30.30
2022-11-20T23:38:56.786Z,30.07
2022-11-20T23:41:23.865Z,27.43
2022-11-20T23:43:50.771Z,30.33
2022-11-20T23:46:17.664Z,28.87
2022-11-20T23:48:45.632Z,30.30
2022-11-20T23:51:13.396Z,27.33
2022-11-20T23:53:40.464Z,28.23
2022-11-20T23:56:07.616Z,27.67
2022-11-20T23:58:37.279Z,28.67
